createdAt,value
2023-05-06T00:00:50.220Z,76.52
2023-05-06T00:01:50.239Z,76.42
2023-05-06T00:02:50.204Z,76.76
2023-05-06T00:03:50.402Z,76.36
2023-05-06T00:04:50.293Z,76.55
2023-05-06T00:05:50.265Z,76.00
2023-05-06T00:06:50.134Z,76.17
2023-05-06T00:07:50.174Z,75.87
2023-05-06T00:08:50.104Z,76.53
2023-05-06T00:09:50.145Z,76.39
2023-05-06T00:10:50.103Z,76.34
2023-05-06T00:11:50.100Z,76.35
2023-05-06T00:12:50.091Z,75.83
2023-05-06T00:13:50.114Z,75.92
2023-05-06T00:14:50.022Z,74.71
2023-05-06T00:15:50.095Z,75.71
2023-05-06T00:16:49.994Z,76.40
2023-05-06T00:17:50.079Z,76.44
2023-05-06T00:18:49.974Z,76.69
2023-05-06T00:19:50.054Z,76.98
2023-05-06T00:20:49.942Z,76.77
2023-05-06T00:21:53.203Z,76.25
2023-05-06T00:22:49.913Z,74.95
2023-05-06T00:23:49.985Z,75.90
2023-05-06T00:24:49.900Z,76.28
2023-05-06T00:25:49.894Z,76.21
2023-05-06T00:26:49.862Z,76.27
2023-05-06T00:27:49.966Z,75.84
2023-05-06T00:28:49.833Z,75.87
2023-05-06T00:29:49.919Z,76.31
2023-05-06T00:30:49.804Z,75.67
2023-05-06T00:31:49.860Z,76.29
2023-05-06T00:32:49.868Z,75.64
2023-05-06T00:33:49.805Z,75.79
2023-05-06T00:34:49.775Z,75.94
2023-05-06T00:35:49.761Z,76.17
2023-05-06T00:36:49.736Z,75.90
2023-05-06T00:37:49.774Z,75.40
2023-05-06T00:38:49.699Z,76.17
2023-05-06T00:39:49.784Z,75.72
2023-05-06T00:40:49.687Z,75.94
2023-05-06T00:41:49.705Z,75.00
2023-05-06T00:42:49.652Z,75.75
2023-05-06T00:43:50.743Z,75.42
2023-05-06T00:44:49.616Z,75.88
2023-05-06T00:45:49.720Z,75.75
2023-05-06T00:46:49.613Z,75.36
2023-05-06T00:47:49.680Z,75.93
2023-05-06T00:48:49.577Z,76.23
2023-05-06T00:49:49.681Z,75.63
2023-05-06T00:50:49.545Z,75.62
2023-05-06T00:51:49.625Z,75.81
2023-05-06T00:52:49.503Z,75.87
2023-05-06T00:53:49.600Z,75.18
2023-05-06T00:54:49.486Z,75.37
2023-05-06T00:55:49.492Z,76.11
2023-05-06T00:56:49.607Z,76.55
2023-05-06T00:57:49.602Z,76.44
2023-05-06T00:58:49.425Z,75.95
2023-05-06T00:59:49.535Z,75.93
2023-05-06T01:00:49.466Z,76.48
2023-05-06T01:01:49.461Z,76.20
2023-05-06T01:02:49.548Z,75.60
2023-05-06T01:03:49.528Z,75.41
2023-05-06T01:04:49.392Z,74.33
2023-05-06T01:05:49.368Z,73.21
2023-05-06T01:06:49.315Z,74.42
2023-05-06T01:07:49.393Z,74.75
2023-05-06T01:08:49.296Z,73.71
2023-05-06T01:09:49.368Z,74.25
2023-05-06T01:10:49.277Z,75.16
2023-05-06T01:11:49.314Z,75.43
2023-05-06T01:12:49.340Z,75.86
2023-05-06T01:13:49.339Z,76.27
2023-05-06T01:14:49.223Z,76.76
2023-05-06T01:15:49.291Z,76.57
2023-05-06T01:16:49.324Z,76.04
2023-05-06T01:17:49.323Z,75.52
2023-05-06T01:18:49.177Z,75.09
2023-05-06T01:19:49.171Z,74.36
2023-05-06T01:20:49.143Z,73.64
2023-05-06T01:21:49.237Z,72.43
2023-05-06T01:22:49.116Z,72.06
2023-05-06T01:23:49.194Z,71.91
2023-05-06T01:24:49.115Z,71.30
2023-05-06T01:25:49.134Z,70.94
2023-05-06T01:26:49.062Z,70.62
2023-05-06T01:27:49.200Z,70.55
2023-05-06T01:28:49.038Z,70.76
2023-05-06T01:29:49.052Z,70.96
2023-05-06T01:30:49.029Z,71.50
2023-05-06T01:31:49.048Z,71.81
2023-05-06T01:32:49.006Z,72.11
2023-05-06T01:33:49.019Z,72.62
2023-05-06T01:34:48.971Z,72.60
2023-05-06T01:35:48.988Z,73.45
2023-05-06T01:36:48.928Z,73.54
2023-05-06T01:37:48.985Z,73.53
2023-05-06T01:38:48.908Z,73.50
2023-05-06T01:39:48.957Z,74.08
2023-05-06T01:40:48.877Z,74.62
2023-05-06T01:41:48.918Z,74.69
2023-05-06T01:42:48.853Z,74.53
2023-05-06T01:43:48.943Z,75.34
2023-05-06T01:44:48.846Z,75.33
2023-05-06T01:45:48.889Z,75.47
2023-05-06T01:46:48.862Z,75.76
2023-05-06T01:47:48.919Z,76.06
2023-05-06T01:48:48.775Z,76.33
2023-05-06T01:49:48.786Z,76.37
2023-05-06T01:50:48.742Z,76.64
2023-05-06T01:51:48.844Z,76.67
2023-05-06T01:52:48.723Z,76.89
2023-05-06T01:53:48.809Z,76.90
2023-05-06T01:54:48.697Z,76.82
2023-05-06T01:55:48.752Z,77.02
2023-05-06T01:56:48.672Z,77.33
2023-05-06T01:57:48.805Z,77.55
2023-05-06T01:58:48.631Z,77.64
2023-05-06T01:59:48.650Z,77.55
2023-05-06T02:00:48.611Z,77.53
2023-05-06T02:01:48.675Z,77.79
2023-05-06T02:02:48.722Z,78.05
2023-05-06T02:03:48.737Z,78.13
2023-05-06T02:04:48.587Z,78.16
2023-05-06T02:05:48.588Z,78.29
2023-05-06T02:06:48.532Z,78.43
2023-05-06T02:07:48.599Z,78.45
2023-05-06T02:08:48.521Z,78.73
2023-05-06T02:09:48.586Z,78.95
2023-05-06T02:10:48.484Z,79.06
2023-05-06T02:11:48.522Z,79.42
2023-05-06T02:12:48.474Z,79.70
2023-05-06T02:13:48.537Z,79.68
2023-05-06T02:14:48.430Z,79.72
2023-05-06T02:15:48.533Z,79.86
2023-05-06T02:16:48.396Z,79.70
2023-05-06T02:17:48.480Z,79.40
2023-05-06T02:18:48.367Z,79.33
2023-05-06T02:19:48.377Z,79.28
2023-05-06T02:20:48.340Z,79.28
2023-05-06T02:21:48.455Z,79.25
2023-05-06T02:22:48.314Z,79.31
2023-05-06T02:23:48.414Z,79.08
2023-05-06T02:24:48.290Z,79.17
2023-05-06T02:25:48.316Z,79.37
2023-05-06T02:26:48.272Z,79.50
2023-05-06T02:27:48.289Z,79.82
2023-05-06T02:28:48.266Z,80.05
2023-05-06T02:29:50.336Z,80.01
2023-05-06T02:30:48.215Z,80.02
2023-05-06T02:31:48.324Z,80.35
2023-05-06T02:32:48.259Z,80.41
2023-05-06T02:33:48.225Z,80.93
2023-05-06T02:34:48.166Z,80.58
2023-05-06T02:35:48.189Z,80.63
2023-05-06T02:36:48.125Z,80.69
2023-05-06T02:37:48.194Z,80.43
2023-05-06T02:38:48.096Z,80.29
2023-05-06T02:39:48.176Z,80.26
2023-05-06T02:40:48.107Z,80.22
2023-05-06T02:41:48.129Z,80.11
2023-05-06T02:42:48.072Z,80.17
2023-05-06T02:43:48.155Z,79.99
2023-05-06T02:44:48.023Z,80.36
2023-05-06T02:45:48.178Z,80.35
2023-05-06T02:46:47.985Z,80.27
2023-05-06T02:47:48.133Z,80.03
2023-05-06T02:48:47.956Z,79.66
2023-05-06T02:49:47.987Z,79.77
2023-05-06T02:50:47.934Z,79.91
2023-05-06T02:51:48.049Z,79.92
2023-05-06T02:52:47.905Z,79.36
2023-05-06T02:53:47.916Z,79.43
2023-05-06T02:54:47.883Z,78.79
2023-05-06T02:55:47.926Z,78.58
2023-05-06T02:56:47.850Z,78.79
2023-05-06T02:57:47.890Z,79.14
2023-05-06T02:58:47.819Z,79.04
2023-05-06T02:59:47.852Z,79.01
2023-05-06T03:00:47.850Z,79.34
2023-05-06T03:01:47.858Z,79.41
2023-05-06T03:02:47.815Z,79.53
2023-05-06T03:03:47.857Z,79.52
2023-05-06T03:04:47.744Z,79.51
2023-05-06T03:05:47.788Z,79.44
2023-05-06T03:06:47.743Z,79.76
2023-05-06T03:07:47.810Z,79.90
2023-05-06T03:08:47.690Z,79.91
2023-05-06T03:09:47.776Z,79.79
2023-05-06T03:10:47.655Z,79.62
2023-05-06T03:11:47.769Z,79.65
2023-05-06T03:12:47.656Z,79.48
2023-05-06T03:13:47.754Z,79.34
2023-05-06T03:14:47.633Z,79.39
2023-05-06T03:15:47.879Z,79.84
2023-05-06T03:16:47.724Z,79.97
2023-05-06T03:17:47.751Z,80.11
2023-05-06T03:18:47.573Z,80.10
2023-05-06T03:19:47.594Z,80.56
2023-05-06T03:20:47.528Z,80.64
2023-05-06T03:21:47.737Z,80.48
2023-05-06T03:22:47.499Z,80.86
2023-05-06T03:23:47.515Z,80.72
2023-05-06T03:24:47.469Z,80.64
2023-05-06T03:25:47.545Z,80.51
2023-05-06T03:26:47.455Z,80.67
2023-05-06T03:27:47.510Z,80.98
2023-05-06T03:28:47.419Z,81.04
2023-05-06T03:29:47.458Z,81.11
2023-05-06T03:30:47.388Z,81.11
2023-05-06T03:31:47.499Z,81.38
2023-05-06T03:32:47.399Z,81.21
2023-05-06T03:33:47.440Z,81.28
2023-05-06T03:34:47.337Z,81.13
2023-05-06T03:35:47.408Z,81.02
2023-05-06T03:36:47.305Z,80.99
2023-05-06T03:37:47.325Z,80.65
2023-05-06T03:38:47.278Z,80.70
2023-05-06T03:39:47.381Z,80.61
2023-05-06T03:40:47.255Z,80.73
2023-05-06T03:41:47.414Z,80.94
2023-05-06T03:42:47.236Z,80.83
2023-05-06T03:43:47.268Z,80.87
2023-05-06T03:44:47.203Z,80.99
2023-05-06T03:45:47.373Z,80.86
2023-05-06T03:46:47.180Z,80.69
2023-05-06T03:47:48.320Z,80.94
2023-05-06T03:48:47.155Z,81.20
2023-05-06T03:49:47.181Z,80.66
2023-05-06T03:50:47.120Z,80.85
2023-05-06T03:51:47.178Z,80.82
2023-05-06T03:52:47.099Z,80.23
2023-05-06T03:53:47.114Z,80.79
2023-05-06T03:54:47.078Z,80.71
2023-05-06T03:55:47.134Z,80.80
2023-05-06T03:56:47.094Z,80.74
2023-05-06T03:57:47.147Z,80.69
2023-05-06T03:58:47.015Z,80.42
2023-05-06T03:59:47.071Z,80.71
2023-05-06T04:00:46.990Z,80.67
2023-05-06T04:01:47.140Z,80.68
2023-05-06T04:02:46.975Z,80.72
2023-05-06T04:03:47.069Z,80.64
2023-05-06T04:04:46.949Z,81.04
2023-05-06T04:05:47.002Z,80.99
2023-05-06T04:06:46.913Z,81.07
2023-05-06T04:07:46.907Z,81.01
2023-05-06T04:08:46.880Z,80.86
2023-05-06T04:09:46.987Z,80.71
2023-05-06T04:10:46.858Z,80.79
2023-05-06T04:11:46.938Z,81.03
2023-05-06T04:12:46.874Z,80.85
2023-05-06T04:13:46.865Z,81.21
2023-05-06T04:14:46.808Z,81.45
2023-05-06T04:15:46.915Z,81.46
2023-05-06T04:16:46.831Z,81.37
2023-05-06T04:17:46.802Z,81.30
2023-05-06T04:18:46.754Z,81.22
2023-05-06T04:19:46.796Z,81.00
2023-05-06T04:20:46.724Z,80.20
2023-05-06T04:21:46.757Z,80.56
2023-05-06T04:22:46.700Z,80.53
2023-05-06T04:23:46.716Z,80.34
2023-05-06T04:24:46.666Z,80.36
2023-05-06T04:25:46.751Z,80.38
2023-05-06T04:26:46.644Z,80.77
2023-05-06T04:27:46.708Z,81.10
2023-05-06T04:28:46.635Z,80.79
2023-05-06T04:29:47.681Z,81.26
2023-05-06T04:30:46.588Z,81.48
2023-05-06T04:31:46.696Z,81.50
2023-05-06T04:32:46.628Z,81.12
2023-05-06T04:33:46.656Z,80.35
2023-05-06T04:34:46.547Z,80.14
2023-05-06T04:35:46.611Z,80.31
2023-05-06T04:36:46.510Z,80.14
2023-05-06T04:37:47.604Z,80.04
2023-05-06T04:38:46.494Z,79.95
2023-05-06T04:39:46.591Z,80.59
2023-05-06T04:40:46.498Z,80.46
2023-05-06T04:41:46.538Z,80.53
2023-05-06T04:42:46.434Z,80.57
2023-05-06T04:43:46.471Z,80.87
2023-05-06T04:44:46.410Z,80.95
2023-05-06T04:45:46.564Z,81.00
2023-05-06T04:46:46.387Z,80.78
2023-05-06T04:47:46.425Z,81.17
2023-05-06T04:48:46.353Z,81.45
2023-05-06T04:49:46.416Z,81.27
2023-05-06T04:50:46.337Z,80.70
2023-05-06T04:51:46.371Z,81.21
2023-05-06T04:52:46.308Z,80.87
2023-05-06T04:53:46.335Z,81.14
2023-05-06T04:54:46.287Z,81.88
2023-05-06T04:55:46.350Z,81.84
2023-05-06T04:56:46.259Z,82.05
2023-05-06T04:57:46.305Z,81.96
2023-05-06T04:58:46.237Z,82.23
2023-05-06T04:59:46.321Z,82.49
2023-05-06T05:00:46.207Z,82.64
2023-05-06T05:01:46.334Z,82.58
2023-05-06T05:02:46.232Z,82.71
2023-05-06T05:03:46.273Z,82.90
2023-05-06T05:04:46.144Z,83.05
2023-05-06T05:05:46.212Z,82.96
2023-05-06T05:06:46.126Z,82.87
2023-05-06T05:07:46.125Z,82.97
2023-05-06T05:08:46.113Z,82.93
2023-05-06T05:09:46.195Z,82.81
2023-05-06T05:10:46.060Z,82.69
2023-05-06T05:11:46.148Z,82.81
2023-05-06T05:12:46.104Z,83.36
2023-05-06T05:13:46.058Z,83.14
2023-05-06T05:14:46.017Z,83.20
2023-05-06T05:15:46.134Z,83.28
2023-05-06T05:16:45.995Z,83.34
2023-05-06T05:17:46.002Z,83.26
2023-05-06T05:18:45.967Z,83.07
2023-05-06T05:19:46.014Z,83.08
2023-05-06T05:20:45.954Z,83.06
2023-05-06T05:21:45.973Z,82.99
2023-05-06T05:22:45.909Z,83.06
2023-05-06T05:23:45.945Z,83.26
2023-05-06T05:24:45.884Z,83.35
2023-05-06T05:25:46.072Z,83.26
2023-05-06T05:26:45.877Z,83.28
2023-05-06T05:27:45.922Z,82.98
2023-05-06T05:28:45.824Z,82.97
2023-05-06T05:29:45.864Z,83.12
2023-05-06T05:30:45.846Z,82.95
2023-05-06T05:31:46.028Z,82.61
2023-05-06T05:32:45.813Z,82.63
2023-05-06T05:33:45.887Z,82.42
2023-05-06T05:34:45.752Z,81.61
2023-05-06T05:35:45.830Z,81.88
2023-05-06T05:36:45.743Z,82.00
2023-05-06T05:37:45.775Z,82.37
2023-05-06T05:38:45.698Z,82.31
2023-05-06T05:39:45.809Z,82.12
2023-05-06T05:40:45.686Z,82.35
2023-05-06T05:41:46.678Z,82.49
2023-05-06T05:42:45.634Z,82.05
2023-05-06T05:43:46.711Z,82.08
2023-05-06T05:44:45.634Z,82.52
2023-05-06T05:45:45.642Z,82.69
2023-05-06T05:46:45.619Z,82.57
2023-05-06T05:47:45.652Z,82.34
2023-05-06T05:48:45.564Z,82.53
2023-05-06T05:49:45.626Z,82.86
2023-05-06T05:50:45.538Z,83.20
2023-05-06T05:51:45.587Z,83.36
2023-05-06T05:52:45.537Z,83.25
2023-05-06T05:53:45.546Z,83.49
2023-05-06T05:54:45.499Z,83.42
2023-05-06T05:55:45.555Z,83.66
2023-05-06T05:56:45.465Z,83.52
2023-05-06T05:57:45.517Z,83.15
2023-05-06T05:58:45.427Z,83.40
2023-05-06T05:59:45.481Z,83.97
2023-05-06T06:00:45.422Z,84.01
2023-05-06T06:01:45.497Z,84.09
2023-05-06T06:02:45.409Z,84.14
2023-05-06T06:03:45.621Z,84.20
2023-05-06T06:04:45.397Z,84.22
2023-05-06T06:05:45.426Z,84.51
2023-05-06T06:06:45.366Z,84.57
2023-05-06T06:07:45.337Z,84.66
2023-05-06T06:08:45.288Z,84.42
2023-05-06T06:09:45.399Z,84.68
2023-05-06T06:10:45.270Z,84.98
2023-05-06T06:11:45.361Z,84.01
2023-05-06T06:12:45.258Z,83.76
2023-05-06T06:13:45.290Z,84.23
2023-05-06T06:14:45.213Z,84.40
2023-05-06T06:15:45.358Z,84.67
2023-05-06T06:16:45.211Z,84.85
2023-05-06T06:17:45.842Z,84.59
2023-05-06T06:18:45.169Z,83.59
2023-05-06T06:19:45.208Z,83.94
2023-05-06T06:20:45.138Z,84.40
2023-05-06T06:21:45.196Z,84.67
2023-05-06T06:22:45.100Z,84.75
2023-05-06T06:23:45.142Z,84.78
2023-05-06T06:24:45.084Z,84.74
2023-05-06T06:25:45.237Z,84.77
2023-05-06T06:26:45.048Z,84.83
2023-05-06T06:27:45.131Z,84.76
2023-05-06T06:28:45.050Z,84.87
2023-05-06T06:29:45.076Z,84.72
2023-05-06T06:30:45.003Z,84.96
2023-05-06T06:31:45.126Z,84.83
2023-05-06T06:32:45.005Z,84.94
2023-05-06T06:33:45.057Z,84.95
2023-05-06T06:34:44.998Z,85.14
2023-05-06T06:35:45.027Z,85.28
2023-05-06T06:36:44.919Z,85.44
2023-05-06T06:37:44.946Z,85.58
2023-05-06T06:38:44.920Z,85.40
2023-05-06T06:39:45.000Z,85.51
2023-05-06T06:40:44.870Z,85.37
2023-05-06T06:41:44.977Z,85.70
2023-05-06T06:42:44.843Z,86.20
2023-05-06T06:43:44.881Z,86.22
2023-05-06T06:44:44.826Z,86.28
2023-05-06T06:45:45.929Z,86.28
2023-05-06T06:46:44.789Z,86.26
2023-05-06T06:47:44.836Z,85.71
2023-05-06T06:48:44.762Z,86.33
2023-05-06T06:49:44.821Z,86.77
2023-05-06T06:50:44.745Z,86.62
2023-05-06T06:51:44.790Z,86.44
2023-05-06T06:52:44.708Z,86.29
2023-05-06T06:53:44.765Z,86.25
2023-05-06T06:54:44.684Z,86.03
2023-05-06T06:55:44.764Z,86.23
2023-05-06T06:56:44.652Z,86.33
2023-05-06T06:57:44.728Z,86.11
2023-05-06T06:58:44.642Z,86.07
2023-05-06T06:59:44.691Z,86.28
2023-05-06T07:00:44.728Z,86.08
2023-05-06T07:01:44.640Z,86.22
2023-05-06T07:02:44.593Z,86.27
2023-05-06T07:03:44.733Z,86.70
2023-05-06T07:04:45.915Z,86.94
2023-05-06T07:05:44.627Z,86.72
2023-05-06T07:06:44.519Z,86.77
2023-05-06T07:07:44.536Z,86.65
2023-05-06T07:08:44.488Z,86.55
2023-05-06T07:09:44.630Z,86.11
2023-05-06T07:10:44.469Z,85.46
2023-05-06T07:11:44.590Z,86.26
2023-05-06T07:12:44.520Z,86.64
2023-05-06T07:13:44.482Z,85.94
2023-05-06T07:14:44.435Z,86.30
2023-05-06T07:15:44.515Z,86.55
2023-05-06T07:16:46.414Z,86.31
2023-05-06T07:17:44.532Z,85.83
2023-05-06T07:18:44.477Z,85.81
2023-05-06T07:19:44.524Z,85.55
2023-05-06T07:20:44.476Z,85.36
2023-05-06T07:21:44.426Z,85.58
2023-05-06T07:22:44.307Z,85.51
2023-05-06T07:23:44.348Z,84.41
2023-05-06T07:24:44.284Z,84.94
2023-05-06T07:25:44.372Z,85.08
2023-05-06T07:26:44.268Z,83.81
2023-05-06T07:27:44.343Z,83.46
2023-05-06T07:28:44.227Z,83.82
2023-05-06T07:29:44.280Z,82.77
2023-05-06T07:30:44.223Z,82.79
2023-05-06T07:31:44.205Z,82.96
2023-05-06T07:32:44.294Z,83.54
2023-05-06T07:33:44.272Z,83.96
2023-05-06T07:34:44.141Z,84.26
2023-05-06T07:35:44.245Z,84.09
2023-05-06T07:36:44.118Z,84.48
2023-05-06T07:37:44.141Z,83.20
2023-05-06T07:38:44.108Z,83.14
2023-05-06T07:39:44.110Z,82.15
2023-05-06T07:40:44.072Z,80.67
2023-05-06T07:41:44.096Z,81.49
2023-05-06T07:42:44.028Z,82.34
2023-05-06T07:43:44.080Z,82.45
2023-05-06T07:44:43.997Z,81.41
2023-05-06T07:45:44.065Z,81.40
2023-05-06T07:46:44.023Z,80.12
2023-05-06T07:47:44.060Z,80.20
2023-05-06T07:48:43.943Z,80.82
2023-05-06T07:49:44.029Z,80.25
2023-05-06T07:50:43.921Z,81.14
2023-05-06T07:51:44.016Z,81.34
2023-05-06T07:52:43.885Z,80.11
2023-05-06T07:53:43.959Z,79.96
2023-05-06T07:54:43.865Z,81.20
2023-05-06T07:55:43.860Z,81.97
2023-05-06T07:56:43.840Z,79.22
2023-05-06T07:57:43.952Z,79.11
2023-05-06T07:58:43.808Z,78.85
2023-05-06T07:59:43.899Z,80.08
2023-05-06T08:00:43.778Z,78.80
2023-05-06T08:01:43.828Z,79.31
2023-05-06T08:02:43.834Z,79.70
2023-05-06T08:03:44.112Z,76.10
2023-05-06T08:04:43.805Z,76.39
2023-05-06T08:05:43.766Z,76.85
2023-05-06T08:06:43.701Z,77.43
2023-05-06T08:07:43.762Z,79.14
2023-05-06T08:08:43.666Z,75.51
2023-05-06T08:09:43.716Z,75.03
2023-05-06T08:10:43.643Z,74.42
2023-05-06T08:11:43.677Z,74.30
2023-05-06T08:12:43.657Z,75.07
2023-05-06T08:13:43.706Z,72.60
2023-05-06T08:14:43.606Z,73.08
2023-05-06T08:15:43.732Z,72.32
2023-05-06T08:16:43.710Z,71.97
2023-05-06T08:17:43.661Z,72.18
2023-05-06T08:18:43.550Z,72.30
2023-05-06T08:19:43.767Z,73.20
2023-05-06T08:20:43.531Z,73.54
2023-05-06T08:21:43.591Z,73.44
2023-05-06T08:22:43.488Z,73.49
2023-05-06T08:23:43.558Z,73.00
2023-05-06T08:24:43.508Z,73.76
2023-05-06T08:25:43.487Z,74.72
2023-05-06T08:26:43.432Z,71.06
2023-05-06T08:27:43.548Z,71.65
2023-05-06T08:28:43.406Z,74.91
2023-05-06T08:29:43.501Z,75.60
2023-05-06T08:30:43.394Z,76.91
2023-05-06T08:31:43.492Z,76.70
2023-05-06T08:32:43.390Z,76.89
2023-05-06T08:33:43.385Z,76.45
2023-05-06T08:34:43.325Z,74.57
2023-05-06T08:35:43.339Z,72.25
2023-05-06T08:36:43.396Z,72.60
2023-05-06T08:37:43.363Z,71.55
2023-05-06T08:38:43.283Z,71.31
2023-05-06T08:39:43.331Z,71.87
2023-05-06T08:40:43.251Z,71.90
2023-05-06T08:41:43.281Z,69.71
2023-05-06T08:42:43.221Z,71.59
2023-05-06T08:43:43.297Z,69.10
2023-05-06T08:44:43.205Z,69.03
2023-05-06T08:45:43.289Z,70.45
2023-05-06T08:46:43.168Z,70.98
2023-05-06T08:47:43.253Z,72.44
2023-05-06T08:48:43.141Z,69.01
2023-05-06T08:49:43.151Z,69.85
2023-05-06T08:50:43.160Z,69.89
2023-05-06T08:51:43.212Z,70.68
2023-05-06T08:52:43.073Z,73.25
2023-05-06T08:53:44.103Z,70.45
2023-05-06T08:54:43.053Z,69.26
2023-05-06T08:55:43.102Z,68.96
2023-05-06T08:56:43.027Z,69.55
2023-05-06T08:57:43.152Z,70.02
2023-05-06T08:58:43.018Z,69.96
2023-05-06T08:59:43.035Z,71.23
2023-05-06T09:00:42.983Z,71.39
2023-05-06T09:01:43.108Z,69.02
2023-05-06T09:02:43.470Z,70.48
2023-05-06T09:03:43.001Z,70.72
2023-05-06T09:04:42.926Z,71.63
2023-05-06T09:05:42.962Z,71.50
2023-05-06T09:06:42.890Z,71.06
2023-05-06T09:07:42.988Z,69.33
2023-05-06T09:08:42.869Z,69.13
2023-05-06T09:09:42.932Z,69.14
2023-05-06T09:10:42.880Z,68.59
2023-05-06T09:11:42.886Z,70.58
2023-05-06T09:12:42.819Z,71.90
2023-05-06T09:13:42.900Z,71.37
2023-05-06T09:14:42.801Z,68.88
2023-05-06T09:15:42.894Z,67.67
2023-05-06T09:16:42.769Z,67.63
2023-05-06T09:17:42.877Z,69.01
2023-05-06T09:18:42.738Z,69.11
2023-05-06T09:19:42.743Z,70.12
2023-05-06T09:20:42.713Z,69.92
2023-05-06T09:21:42.825Z,69.33
2023-05-06T09:22:42.710Z,71.76
2023-05-06T09:23:42.783Z,69.64
2023-05-06T09:24:42.659Z,70.23
2023-05-06T09:25:42.688Z,69.28
2023-05-06T09:26:42.645Z,70.05
2023-05-06T09:27:42.657Z,67.86
2023-05-06T09:28:42.612Z,67.64
2023-05-06T09:29:42.606Z,67.99
2023-05-06T09:30:42.620Z,68.01
2023-05-06T09:31:42.629Z,70.17
2023-05-06T09:32:42.609Z,69.58
2023-05-06T09:33:42.702Z,69.05
2023-05-06T09:34:42.554Z,66.99
2023-05-06T09:35:42.560Z,66.54
2023-05-06T09:36:42.517Z,66.53
2023-05-06T09:37:42.592Z,68.30
2023-05-06T09:38:42.476Z,67.18
2023-05-06T09:39:42.541Z,66.92
2023-05-06T09:40:42.454Z,67.00
2023-05-06T09:41:42.529Z,67.85
2023-05-06T09:42:42.419Z,66.69
2023-05-06T09:43:42.510Z,66.72
2023-05-06T09:44:42.398Z,67.33
2023-05-06T09:45:42.487Z,66.74
2023-05-06T09:46:42.495Z,66.95
2023-05-06T09:47:42.483Z,68.04
2023-05-06T09:48:42.353Z,67.65
2023-05-06T09:49:42.370Z,67.98
2023-05-06T09:50:42.333Z,67.56
2023-05-06T09:51:42.428Z,67.20
2023-05-06T09:52:42.288Z,67.49
2023-05-06T09:53:42.382Z,67.14
2023-05-06T09:54:42.263Z,67.06
2023-05-06T09:55:42.290Z,65.60
2023-05-06T09:56:42.238Z,65.72
2023-05-06T09:57:42.272Z,65.71
2023-05-06T09:58:42.207Z,66.13
2023-05-06T09:59:42.215Z,63.92
2023-05-06T10:00:42.185Z,64.82
2023-05-06T10:01:42.273Z,64.94
2023-05-06T10:02:42.287Z,64.20
2023-05-06T10:03:42.422Z,63.84
2023-05-06T10:04:42.518Z,64.35
2023-05-06T10:05:42.167Z,65.32
2023-05-06T10:06:42.132Z,65.39
2023-05-06T10:07:42.216Z,66.06
2023-05-06T10:08:42.079Z,65.64
2023-05-06T10:09:42.157Z,64.72
2023-05-06T10:10:42.049Z,65.46
2023-05-06T10:11:42.099Z,63.78
2023-05-06T10:12:42.096Z,64.43
2023-05-06T10:13:42.111Z,65.27
2023-05-06T10:14:42.009Z,67.27
2023-05-06T10:15:42.179Z,66.96
2023-05-06T10:16:42.167Z,65.61
2023-05-06T10:17:42.057Z,65.52
2023-05-06T10:18:41.947Z,68.00
2023-05-06T10:19:42.065Z,65.63
2023-05-06T10:20:41.930Z,66.04
2023-05-06T10:21:42.023Z,65.89
2023-05-06T10:22:41.894Z,65.34
2023-05-06T10:23:42.010Z,65.82
2023-05-06T10:24:41.880Z,63.08
2023-05-06T10:25:41.898Z,61.60
2023-05-06T10:26:41.843Z,62.84
2023-05-06T10:27:42.032Z,62.76
2023-05-06T10:28:41.814Z,62.70
2023-05-06T10:29:41.821Z,62.53
2023-05-06T10:30:41.787Z,62.85
2023-05-06T10:31:41.896Z,63.48
2023-05-06T10:32:41.843Z,64.74
2023-05-06T10:33:42.445Z,63.07
2023-05-06T10:34:41.719Z,63.69
2023-05-06T10:35:41.772Z,63.19
2023-05-06T10:36:41.726Z,62.86
2023-05-06T10:37:41.774Z,62.00
2023-05-06T10:38:41.684Z,62.19
2023-05-06T10:39:42.312Z,62.81
2023-05-06T10:40:41.667Z,65.04
2023-05-06T10:41:41.703Z,63.83
2023-05-06T10:42:41.627Z,62.77
2023-05-06T10:43:41.731Z,63.06
2023-05-06T10:44:41.593Z,63.33
2023-05-06T10:45:41.702Z,63.48
2023-05-06T10:46:41.586Z,61.85
2023-05-06T10:47:41.660Z,62.22
2023-05-06T10:48:41.531Z,61.70
2023-05-06T10:49:41.551Z,61.62
2023-05-06T10:50:41.513Z,61.64
2023-05-06T10:51:41.622Z,61.40
2023-05-06T10:52:41.515Z,61.27
2023-05-06T10:53:41.583Z,61.86
2023-05-06T10:54:41.458Z,64.15
2023-05-06T10:55:41.491Z,66.03
2023-05-06T10:56:41.425Z,62.55
2023-05-06T10:57:41.478Z,62.54
2023-05-06T10:58:41.410Z,64.15
2023-05-06T10:59:41.423Z,63.55
2023-05-06T11:00:41.443Z,59.92
2023-05-06T11:01:41.436Z,62.19
2023-05-06T11:02:41.418Z,60.71
2023-05-06T11:03:41.444Z,58.69
2023-05-06T11:04:41.316Z,57.01
2023-05-06T11:05:41.364Z,58.13
2023-05-06T11:06:41.296Z,60.62
2023-05-06T11:07:41.371Z,58.07
2023-05-06T11:08:41.269Z,58.40
2023-05-06T11:09:41.344Z,57.58
2023-05-06T11:10:41.243Z,57.61
2023-05-06T11:11:41.299Z,57.25
2023-05-06T11:12:41.214Z,59.73
2023-05-06T11:13:41.215Z,61.64
2023-05-06T11:14:41.208Z,56.27
2023-05-06T11:15:41.308Z,55.79
2023-05-06T11:16:41.193Z,55.12
2023-05-06T11:17:41.292Z,54.97
2023-05-06T11:18:41.127Z,54.98
2023-05-06T11:19:41.156Z,56.56
2023-05-06T11:20:41.091Z,55.49
2023-05-06T11:21:41.146Z,54.51
2023-05-06T11:22:41.155Z,55.72
2023-05-06T11:23:41.078Z,56.67
2023-05-06T11:24:41.048Z,56.02
2023-05-06T11:25:41.125Z,56.96
2023-05-06T11:26:41.029Z,55.88
2023-05-06T11:27:41.081Z,56.37
2023-05-06T11:28:40.991Z,56.68
2023-05-06T11:29:41.023Z,55.72
2023-05-06T11:30:41.002Z,56.78
2023-05-06T11:31:41.117Z,55.29
2023-05-06T11:32:40.974Z,55.51
2023-05-06T11:33:41.016Z,55.35
2023-05-06T11:34:40.920Z,56.19
2023-05-06T11:35:40.967Z,56.25
2023-05-06T11:36:40.907Z,55.99
2023-05-06T11:37:41.016Z,56.46
2023-05-06T11:38:40.875Z,57.42
2023-05-06T11:39:41.236Z,55.46
2023-05-06T11:40:40.846Z,54.99
2023-05-06T11:41:40.906Z,54.39
2023-05-06T11:42:40.810Z,54.93
2023-05-06T11:43:40.821Z,55.79
2023-05-06T11:44:40.781Z,53.40
2023-05-06T11:45:40.921Z,54.51
2023-05-06T11:46:40.791Z,56.47
2023-05-06T11:47:40.891Z,55.65
2023-05-06T11:48:40.732Z,54.69
2023-05-06T11:49:40.774Z,56.01
2023-05-06T11:50:40.701Z,58.68
2023-05-06T11:51:40.834Z,58.77
2023-05-06T11:52:40.696Z,61.12
2023-05-06T11:53:40.713Z,59.83
2023-05-06T11:54:40.641Z,59.04
2023-05-06T11:55:40.707Z,59.87
2023-05-06T11:56:40.636Z,59.73
2023-05-06T11:57:40.668Z,59.59
2023-05-06T11:58:40.608Z,59.32
2023-05-06T11:59:40.629Z,59.22
2023-05-06T12:00:40.565Z,60.07
2023-05-06T12:01:40.644Z,59.63
2023-05-06T12:02:40.688Z,61.04
2023-05-06T12:03:40.875Z,59.66
2023-05-06T12:04:40.572Z,59.17
2023-05-06T12:05:40.569Z,59.28
2023-05-06T12:06:40.494Z,58.60
2023-05-06T12:07:40.608Z,59.13
2023-05-06T12:08:40.458Z,60.12
2023-05-06T12:09:40.569Z,63.54
2023-05-06T12:10:40.448Z,61.76
2023-05-06T12:11:42.005Z,60.97
2023-05-06T12:12:40.447Z,61.10
2023-05-06T12:13:41.454Z,60.66
2023-05-06T12:14:40.383Z,61.68
2023-05-06T12:15:40.497Z,61.56
2023-05-06T12:16:40.391Z,61.89
2023-05-06T12:17:40.377Z,62.72
2023-05-06T12:18:40.327Z,63.81
2023-05-06T12:19:40.389Z,65.14
2023-05-06T12:20:40.298Z,64.38
2023-05-06T12:21:40.392Z,62.89
2023-05-06T12:22:40.277Z,63.30
2023-05-06T12:23:40.333Z,62.34
2023-05-06T12:24:40.261Z,62.30
2023-05-06T12:25:40.324Z,62.64
2023-05-06T12:26:40.218Z,62.74
2023-05-06T12:27:40.281Z,63.32
2023-05-06T12:28:40.189Z,63.52
2023-05-06T12:29:40.241Z,64.00
2023-05-06T12:30:40.171Z,64.96
2023-05-06T12:31:40.283Z,66.40
2023-05-06T12:32:40.151Z,67.83
2023-05-06T12:33:40.228Z,69.33
2023-05-06T12:34:40.130Z,70.07
2023-05-06T12:35:40.193Z,69.69
2023-05-06T12:36:40.106Z,70.66
2023-05-06T12:37:40.092Z,70.29
2023-05-06T12:38:40.059Z,68.51
2023-05-06T12:39:40.164Z,67.98
2023-05-06T12:40:40.046Z,68.15
2023-05-06T12:41:40.125Z,67.47
2023-05-06T12:42:40.033Z,66.94
2023-05-06T12:43:40.051Z,67.24
2023-05-06T12:44:40.000Z,67.67
2023-05-06T12:45:40.172Z,69.85
2023-05-06T12:46:39.965Z,70.57
2023-05-06T12:47:39.985Z,71.92
2023-05-06T12:48:39.950Z,71.44
2023-05-06T12:49:39.981Z,71.79
2023-05-06T12:50:40.150Z,70.75
2023-05-06T12:51:39.942Z,71.44
2023-05-06T12:52:39.885Z,72.70